createdAt,value
2018-05-21T00:00:01.298Z,14.42
2018-05-21T00:00:05.779Z,14.52
2018-05-21T00:00:10.109Z,14.52
2018-05-21T00:00:14.108Z,14.49
2018-05-21T00:00:18.437Z,14.44
2018-05-21T00:00:22.838Z,14.42
2018-05-21T00:00:27.046Z,14.45
2018-05-21T00:00:31.145Z,14.46
2018-05-21T00:00:35.460Z,14.48
2018-05-21T00:00:39.559Z,14.49
2018-05-21T00:00:43.776Z,14.46
2018-05-21T00:00:47.984Z,14.42
2018-05-21T00:00:52.306Z,14.41
2018-05-21T00:00:56.524Z,14.45
2018-05-21T00:01:00.520Z,14.41
2018-05-21T00:01:04.563Z,14.52
2018-05-21T00:01:08.810Z,14.52
2018-05-21T00:01:13.135Z,14.42
2018-05-21T00:01:17.458Z,14.44
2018-05-21T00:01:21.666Z,14.41
2018-05-21T00:01:25.984Z,14.39
2018-05-21T00:01:30.296Z,14.48
2018-05-21T00:01:34.395Z,14.46
2018-05-21T00:01:38.618Z,14.41
2018-05-21T00:01:42.729Z,14.46
2018-05-21T00:01:47.047Z,14.42
2018-05-21T00:01:51.403Z,14.46
2018-05-21T00:01:55.720Z,14.42
2018-05-21T00:01:59.931Z,14.46
2018-05-21T00:02:04.247Z,14.48
2018-05-21T00:02:08.457Z,14.42
2018-05-21T00:02:12.556Z,14.46
2018-05-21T00:02:16.651Z,14.44
2018-05-21T00:02:20.758Z,14.49
2018-05-21T00:02:25.074Z,14.46
2018-05-21T00:02:29.180Z,14.44
2018-05-21T00:02:33.398Z,14.41
2018-05-21T00:02:37.613Z,14.39
2018-05-21T00:02:41.928Z,14.39
2018-05-21T00:02:46.036Z,14.42
2018-05-21T00:02:50.353Z,14.45
2018-05-21T00:02:54.564Z,14.44
2018-05-21T00:02:58.662Z,14.44
2018-05-21T00:03:02.772Z,14.45
2018-05-21T00:03:07.094Z,14.38
2018-05-21T00:03:11.302Z,14.46
2018-05-21T00:03:15.524Z,14.41
2018-05-21T00:03:19.842Z,14.48
2018-05-21T00:03:24.274Z,14.44
2018-05-21T00:03:28.601Z,14.46
2018-05-21T00:03:32.811Z,14.49
2018-05-21T00:03:37.038Z,14.39
2018-05-21T00:03:41.252Z,14.46
2018-05-21T00:03:45.486Z,14.42
2018-05-21T00:03:49.587Z,14.44
2018-05-21T00:03:53.584Z,14.44
2018-05-21T00:03:57.917Z,14.41
2018-05-21T00:04:02.134Z,14.45
2018-05-21T00:04:06.351Z,14.42
2018-05-21T00:04:10.560Z,14.44
2018-05-21T00:04:14.883Z,14.46
2018-05-21T00:04:19.212Z,14.45
2018-05-21T00:04:23.205Z,14.42
2018-05-21T00:04:27.102Z,14.44
2018-05-21T00:04:31.098Z,14.41
2018-05-21T00:04:35.314Z,14.39
2018-05-21T00:04:39.522Z,14.39
2018-05-21T00:05:15.617Z,14.44
2018-05-21T00:05:19.824Z,14.49
2018-05-21T00:05:24.150Z,14.44
2018-05-21T00:05:28.351Z,14.39
2018-05-21T00:05:32.569Z,14.49
2018-05-21T00:05:36.780Z,14.48
2018-05-21T00:05:40.985Z,14.46
2018-05-21T00:05:45.087Z,14.45
2018-05-21T00:05:49.310Z,14.46
2018-05-21T00:05:53.529Z,14.42
2018-05-21T00:05:57.850Z,14.39
2018-05-21T00:06:02.176Z,14.46
2018-05-21T00:06:06.277Z,14.46
2018-05-21T00:06:10.607Z,14.44
2018-05-21T00:06:14.923Z,14.41
2018-05-21T00:06:19.142Z,14.42
2018-05-21T00:06:23.347Z,14.44
2018-05-21T00:06:27.565Z,14.45
2018-05-21T00:06:31.560Z,14.39
2018-05-21T00:06:35.776Z,14.35
2018-05-21T00:06:39.957Z,14.34
2018-05-21T00:06:44.173Z,14.45
2018-05-21T00:06:48.380Z,14.44
2018-05-21T00:06:52.699Z,14.46
2018-05-21T00:06:56.915Z,14.45
2018-05-21T00:07:01.119Z,14.48
2018-05-21T00:07:05.222Z,14.45
2018-05-21T00:07:09.226Z,14.41
2018-05-21T00:07:13.438Z,14.34
2018-05-21T00:07:17.757Z,14.42
2018-05-21T00:07:22.080Z,14.36
2018-05-21T00:07:26.293Z,14.42
2018-05-21T00:07:30.404Z,14.38
2018-05-21T00:07:34.611Z,14.46
2018-05-21T00:07:38.608Z,14.42
2018-05-21T00:07:42.987Z,14.36
2018-05-21T00:07:47.093Z,14.45
2018-05-21T00:07:51.413Z,14.44
2018-05-21T00:07:55.703Z,14.41
2018-05-21T00:08:00.030Z,14.44
2018-05-21T00:08:04.235Z,14.44
2018-05-21T00:08:08.456Z,14.44
2018-05-21T00:08:12.555Z,14.42
2018-05-21T00:08:16.774Z,14.44
2018-05-21T00:08:21.088Z,14.36
2018-05-21T00:08:25.300Z,14.38
2018-05-21T00:08:29.400Z,14.41
2018-05-21T00:08:33.496Z,14.41
2018-05-21T00:08:37.709Z,14.38
2018-05-21T00:08:42.021Z,14.39
2018-05-21T00:08:46.338Z,14.44
2018-05-21T00:08:50.658Z,14.34
2018-05-21T00:08:54.649Z,14.38
2018-05-21T00:08:58.859Z,14.38
2018-05-21T00:09:02.900Z,14.45
2018-05-21T00:09:07.219Z,14.44
2018-05-21T00:09:11.541Z,14.44
2018-05-21T00:09:15.751Z,14.46
2018-05-21T00:09:19.965Z,14.42
2018-05-21T00:09:24.186Z,14.36
2018-05-21T00:09:28.303Z,14.39
2018-05-21T00:09:32.615Z,14.44
2018-05-21T00:09:36.936Z,14.46
2018-05-21T00:09:41.249Z,14.44
2018-05-21T00:09:45.464Z,14.41
2018-05-21T00:09:49.783Z,14.44
2018-05-21T00:09:54.099Z,14.42
2018-05-21T00:09:58.416Z,14.38
2018-05-21T00:10:02.405Z,14.34
2018-05-21T00:10:06.297Z,14.41
2018-05-21T00:10:10.404Z,14.41
2018-05-21T00:10:14.517Z,14.44
2018-05-21T00:10:18.726Z,14.44
2018-05-21T00:10:23.041Z,14.39
2018-05-21T00:10:27.357Z,14.38
2018-05-21T00:10:31.565Z,14.44
2018-05-21T00:10:35.769Z,14.42
2018-05-21T00:10:39.866Z,14.46
2018-05-21T00:10:44.185Z,14.41
2018-05-21T00:10:48.405Z,14.39
2018-05-21T00:10:52.515Z,14.42
2018-05-21T00:10:56.833Z,14.44
2018-05-21T00:11:01.147Z,14.38
2018-05-21T00:11:05.146Z,14.36
2018-05-21T00:11:09.143Z,14.46
2018-05-21T00:11:13.244Z,14.34
2018-05-21T00:11:17.458Z,14.45
2018-05-21T00:11:21.557Z,14.45
2018-05-21T00:11:25.655Z,14.44
2018-05-21T00:11:29.872Z,14.39
2018-05-21T00:11:34.206Z,14.46
2018-05-21T00:11:38.419Z,14.41
2018-05-21T00:11:42.517Z,14.35
2018-05-21T00:11:46.812Z,14.44
2018-05-21T00:11:51.024Z,14.44
2018-05-21T00:11:55.340Z,14.38
2018-05-21T00:11:59.452Z,14.38
2018-05-21T00:12:03.572Z,14.39
2018-05-21T00:12:07.676Z,14.41
2018-05-21T00:12:11.781Z,14.44
2018-05-21T00:12:15.889Z,14.38
2018-05-21T00:12:20.098Z,14.41
2018-05-21T00:12:24.419Z,14.36
2018-05-21T00:12:28.628Z,14.44
2018-05-21T00:12:32.727Z,14.35
2018-05-21T00:12:36.833Z,14.38
2018-05-21T00:12:40.933Z,14.41
2018-05-21T00:12:45.140Z,14.36
2018-05-21T00:12:49.457Z,14.44
2018-05-21T00:12:53.768Z,14.38
2018-05-21T00:12:57.986Z,14.3
2018-05-21T00:13:02.238Z,14.39
2018-05-21T00:13:06.235Z,14.26
2018-05-21T00:13:10.338Z,14.36
2018-05-21T00:13:14.548Z,14.35
2018-05-21T00:13:18.758Z,14.34
2018-05-21T00:13:22.859Z,14.3
2018-05-21T00:13:27.180Z,14.27
2018-05-21T00:13:31.388Z,14.27
2018-05-21T00:13:35.494Z,14.27
2018-05-21T00:13:39.816Z,14.24
2018-05-21T00:13:44.140Z,14.29
2018-05-21T00:13:48.359Z,14.31
2018-05-21T00:13:52.675Z,14.35
2018-05-21T00:13:56.883Z,14.29
2018-05-21T00:14:00.992Z,14.34
2018-05-21T00:14:05.325Z,14.3
2018-05-21T00:14:09.428Z,14.26
2018-05-21T00:14:13.637Z,14.3
2018-05-21T00:14:17.958Z,14.3
2018-05-21T00:14:22.062Z,14.3
2018-05-21T00:14:26.303Z,14.34
2018-05-21T00:14:30.525Z,14.27
2018-05-21T00:14:34.742Z,14.27
2018-05-21T00:14:39.141Z,14.27
2018-05-21T00:14:43.351Z,14.27
2018-05-21T00:14:47.446Z,14.31
2018-05-21T00:14:51.759Z,14.27
2018-05-21T00:14:55.872Z,14.29
2018-05-21T00:14:59.977Z,14.26
2018-05-21T00:15:04.088Z,14.26
2018-05-21T00:15:08.191Z,14.27
2018-05-21T00:15:12.526Z,14.3
2018-05-21T00:15:16.740Z,14.24
2018-05-21T00:15:21.080Z,14.27
2018-05-21T00:15:25.071Z,14.29
2018-05-21T00:15:29.169Z,14.31
2018-05-21T00:15:33.492Z,14.29
2018-05-21T00:15:37.699Z,14.34
2018-05-21T00:15:41.805Z,14.29
2018-05-21T00:15:46.117Z,14.26
2018-05-21T00:15:50.441Z,14.29
2018-05-21T00:15:54.657Z,14.3
2018-05-21T00:15:58.907Z,14.24
2018-05-21T00:16:02.793Z,14.26
2018-05-21T00:16:06.571Z,14.29
2018-05-21T00:16:10.887Z,14.27
2018-05-21T00:16:15.106Z,14.3
2018-05-21T00:16:19.433Z,14.27
2018-05-21T00:16:23.751Z,14.24
2018-05-21T00:16:27.857Z,14.29
2018-05-21T00:16:32.070Z,14.24
2018-05-21T00:16:36.361Z,14.24
2018-05-21T00:16:40.698Z,14.26
2018-05-21T00:16:45.329Z,14.26
2018-05-21T00:16:49.805Z,14.24
2018-05-21T00:16:54.390Z,14.24
2018-05-21T00:16:58.487Z,14.35
2018-05-21T00:17:02.633Z,14.29
2018-05-21T00:17:06.955Z,14.31
2018-05-21T00:17:11.277Z,14.34
2018-05-21T00:17:15.607Z,14.29
2018-05-21T00:17:19.823Z,14.23
2018-05-21T00:17:24.140Z,14.23
2018-05-21T00:17:28.241Z,14.3
2018-05-21T00:17:32.563Z,14.34
2018-05-21T00:17:36.902Z,14.29
2018-05-21T00:17:41.220Z,14.34
2018-05-21T00:17:45.533Z,14.29
2018-05-21T00:17:49.650Z,14.29
2018-05-21T00:17:53.753Z,14.26
2018-05-21T00:17:57.858Z,14.34
2018-05-21T00:18:01.955Z,14.19
2018-05-21T00:18:06.056Z,14.23
2018-05-21T00:18:10.381Z,14.23
2018-05-21T00:18:14.492Z,14.23
2018-05-21T00:18:18.592Z,14.27
2018-05-21T00:18:22.915Z,14.24
2018-05-21T00:18:27.132Z,14.2
2018-05-21T00:18:31.236Z,14.24
2018-05-21T00:18:35.337Z,14.29
2018-05-21T00:18:39.547Z,14.23
2018-05-21T00:18:43.886Z,14.19
2018-05-21T00:18:47.982Z,14.3
2018-05-21T00:18:51.973Z,14.24
2018-05-21T00:18:56.187Z,14.26
2018-05-21T00:19:00.501Z,14.24
2018-05-21T00:19:04.497Z,14.29
2018-05-21T00:19:08.821Z,14.2
2018-05-21T00:19:13.029Z,14.19
2018-05-21T00:19:17.237Z,14.24
2018-05-21T00:19:21.448Z,14.21
2018-05-21T00:19:25.658Z,14.23
2018-05-21T00:19:29.982Z,14.24
2018-05-21T00:19:34.185Z,14.29
2018-05-21T00:19:38.507Z,14.2
2018-05-21T00:19:42.841Z,14.2
2018-05-21T00:19:46.852Z,14.21
2018-05-21T00:19:50.853Z,14.21
2018-05-21T00:19:55.071Z,14.2
2018-05-21T00:19:59.386Z,14.17
2018-05-21T00:20:03.499Z,14.21
2018-05-21T00:20:07.687Z,14.2
2018-05-21T00:20:11.679Z,14.16
2018-05-21T00:20:16.002Z,14.23
2018-05-21T00:20:20.215Z,14.19
2018-05-21T00:20:24.429Z,14.24
2018-05-21T00:20:28.750Z,14.23
2018-05-21T00:20:33.062Z,14.23
2018-05-21T00:20:37.060Z,14.26
2018-05-21T00:20:41.164Z,14.2
2018-05-21T00:20:45.385Z,14.12
2018-05-21T00:20:49.705Z,14.26
2018-05-21T00:20:54.026Z,14.29
2018-05-21T00:20:58.027Z,14.16
2018-05-21T00:21:02.248Z,14.17
2018-05-21T00:21:06.460Z,14.26
2018-05-21T00:21:10.833Z,14.26
2018-05-21T00:21:15.039Z,14.2
2018-05-21T00:21:19.143Z,14.21
2018-05-21T00:21:23.456Z,14.13
2018-05-21T00:21:27.614Z,14.19
2018-05-21T00:21:31.826Z,14.2
2018-05-21T00:21:36.042Z,14.13
2018-05-21T00:21:40.359Z,14.16
2018-05-21T00:21:44.574Z,14.17
2018-05-21T00:21:48.890Z,14.13
2018-05-21T00:21:53.004Z,14.09
2018-05-21T00:21:57.111Z,14.17
2018-05-21T00:22:01.228Z,14.08
2018-05-21T00:22:05.335Z,14.08
2018-05-21T00:22:09.435Z,14.01
2018-05-21T00:22:13.644Z,14.05
2018-05-21T00:22:17.852Z,14.12
2018-05-21T00:22:22.167Z,14.09
2018-05-21T00:22:26.486Z,14.04
2018-05-21T00:22:30.594Z,14.08
2018-05-21T00:22:34.923Z,14.04
2018-05-21T00:22:39.129Z,14.04
2018-05-21T00:22:43.336Z,14.04
2018-05-21T00:22:47.644Z,14.13
2018-05-21T00:22:51.974Z,14.11
2018-05-21T00:22:56.191Z,14.12
2018-05-21T00:23:00.508Z,14.12
2018-05-21T00:23:04.614Z,14.06
2018-05-21T00:23:08.936Z,14.06
2018-05-21T00:23:13.255Z,14.05
2018-05-21T00:23:17.462Z,14.05
2018-05-21T00:23:21.778Z,14.05
2018-05-21T00:23:25.879Z,14.06
2018-05-21T00:23:30.089Z,14.04
2018-05-21T00:23:34.413Z,14.02
2018-05-21T00:23:38.627Z,14.04
2018-05-21T00:23:42.938Z,14.04
2018-05-21T00:23:47.143Z,14.06
2018-05-21T00:23:51.346Z,14.06
2018-05-21T00:23:55.558Z,14.02
2018-05-21T00:23:59.883Z,14.04
2018-05-21T00:24:04.207Z,13.99
2018-05-21T00:24:08.418Z,14.02
2018-05-21T00:24:12.632Z,13.99
2018-05-21T00:24:16.733Z,13.99
2018-05-21T00:24:21.048Z,14.04
2018-05-21T00:24:25.375Z,14.01
2018-05-21T00:24:29.372Z,13.99
2018-05-21T00:24:33.580Z,14.02
2018-05-21T00:24:37.895Z,14.09
2018-05-21T00:24:42.099Z,14.02
2018-05-21T00:24:46.204Z,14.04
2018-05-21T00:24:50.521Z,14.01
2018-05-21T00:24:54.838Z,13.99
2018-05-21T00:24:59.050Z,14.04
2018-05-21T00:25:03.276Z,14.01
2018-05-21T00:25:07.495Z,13.99
2018-05-21T00:25:11.700Z,13.96
2018-05-21T00:25:15.909Z,13.96
2018-05-21T00:25:20.115Z,14.11
2018-05-21T00:25:24.224Z,13.9
2018-05-21T00:25:28.426Z,14.04
2018-05-21T00:25:32.743Z,13.9
2018-05-21T00:25:37.072Z,13.99
2018-05-21T00:25:41.384Z,13.99
2018-05-21T00:25:45.704Z,13.94
2018-05-21T00:25:50.053Z,13.99
2018-05-21T00:25:54.277Z,14.04
2018-05-21T00:25:58.489Z,14.01
2018-05-21T00:26:02.674Z,13.99
2018-05-21T00:26:06.989Z,13.93
2018-05-21T00:26:11.368Z,13.88
2018-05-21T00:26:15.472Z,13.94
2018-05-21T00:26:19.804Z,14.01
2018-05-21T00:26:24.013Z,13.91
2018-05-21T00:26:28.111Z,13.94
2018-05-21T00:26:32.324Z,14.05
2018-05-21T00:26:36.534Z,14.01
2018-05-21T00:26:40.851Z,14.04
2018-05-21T00:26:45.059Z,14.02
2018-05-21T00:26:49.263Z,14.04
2018-05-21T00:26:53.477Z,13.99
2018-05-21T00:26:57.809Z,14.04
2018-05-21T00:27:02.021Z,13.93
2018-05-21T00:27:06.292Z,14.01
2018-05-21T00:27:10.623Z,14.01
2018-05-21T00:27:14.937Z,14.01
2018-05-21T00:27:19.147Z,13.93
2018-05-21T00:27:23.363Z,14.04
2018-05-21T00:27:27.473Z,13.99
2018-05-21T00:27:31.801Z,14.02
2018-05-21T00:27:36.128Z,13.99
2018-05-21T00:27:40.343Z,13.99
2018-05-21T00:27:44.664Z,14.05
2018-05-21T00:27:48.996Z,13.91
2018-05-21T00:27:53.217Z,13.99
2018-05-21T00:27:57.426Z,14.04
2018-05-21T00:28:01.641Z,13.98
2018-05-21T00:28:05.856Z,14.08
2018-05-21T00:28:09.960Z,14.01
2018-05-21T00:28:14.064Z,14.01
2018-05-21T00:28:18.169Z,14.04
2018-05-21T00:28:22.393Z,13.98
2018-05-21T00:28:26.720Z,14.01
2018-05-21T00:28:30.829Z,13.91
2018-05-21T00:28:34.941Z,14.04
2018-05-21T00:28:39.163Z,14.04
2018-05-21T00:28:43.382Z,13.91
2018-05-21T00:28:47.707Z,14.01
2018-05-21T00:28:51.811Z,14.01
2018-05-21T00:28:56.019Z,13.99
2018-05-21T00:29:00.178Z,14.01
2018-05-21T00:29:04.390Z,14.01
2018-05-21T00:29:08.608Z,14.04
2018-05-21T00:29:12.711Z,13.94
2018-05-21T00:29:17.027Z,13.9
2018-05-21T00:29:21.125Z,13.99
2018-05-21T00:29:25.229Z,14.01
2018-05-21T00:29:29.440Z,13.88
2018-05-21T00:29:33.651Z,13.91
2018-05-21T00:29:37.862Z,13.99
2018-05-21T00:29:42.078Z,13.96
2018-05-21T00:29:46.293Z,14.01
2018-05-21T00:29:50.608Z,13.99
2018-05-21T00:29:54.720Z,13.99
2018-05-21T00:29:58.826Z,14.08
2018-05-21T00:30:02.987Z,14.01
2018-05-21T00:30:06.979Z,13.98
2018-05-21T00:30:11.199Z,13.9
2018-05-21T00:30:15.516Z,14.02
2018-05-21T00:30:19.877Z,13.9
2018-05-21T00:30:23.980Z,14.12
2018-05-21T00:30:28.081Z,14.01
2018-05-21T00:30:32.187Z,14.02
2018-05-21T00:30:36.396Z,14.04
2018-05-21T00:30:40.618Z,14.05
2018-05-21T00:30:44.825Z,14.04
2018-05-21T00:30:48.927Z,13.93
2018-05-21T00:30:53.135Z,14.02
2018-05-21T00:30:57.344Z,13.99
2018-05-21T00:31:01.337Z,14.04
2018-05-21T00:31:05.711Z,13.9
2018-05-21T00:31:10.082Z,14.01
2018-05-21T00:31:14.292Z,14.01
2018-05-21T00:31:18.511Z,13.94
2018-05-21T00:31:22.835Z,14.01
2018-05-21T00:31:26.825Z,13.98
2018-05-21T00:31:30.707Z,13.99
2018-05-21T00:31:34.893Z,13.99
2018-05-21T00:31:39.105Z,13.93
2018-05-21T00:31:43.310Z,14.01
2018-05-21T00:31:47.636Z,14.02
2018-05-21T00:31:51.950Z,13.99
2018-05-21T00:31:56.058Z,13.98
2018-05-21T00:32:00.378Z,14.12
2018-05-21T00:32:04.487Z,14.04
2018-05-21T00:32:08.700Z,13.93
2018-05-21T00:32:12.694Z,14.01
2018-05-21T00:32:16.977Z,14.08
2018-05-21T00:32:21.182Z,14.02
2018-05-21T00:32:25.398Z,14.01
2018-05-21T00:32:29.604Z,14.08
2018-05-21T00:32:33.922Z,14.02
2018-05-21T00:32:38.234Z,14.01
2018-05-21T00:32:42.441Z,14.05
2018-05-21T00:32:46.660Z,13.93
2018-05-21T00:32:50.877Z,13.93
2018-05-21T00:32:55.200Z,13.96
2018-05-21T00:32:59.415Z,14.04
2018-05-21T00:33:03.639Z,14.04
2018-05-21T00:33:07.638Z,13.99
2018-05-21T00:33:11.625Z,14.09
2018-05-21T00:33:15.619Z,14.04
2018-05-21T00:33:19.837Z,13.99
2018-05-21T00:33:24.057Z,14.04
2018-05-21T00:33:28.374Z,13.96
2018-05-21T00:33:32.578Z,14.02
2018-05-21T00:33:36.570Z,14.04
2018-05-21T00:33:40.674Z,14.06
2018-05-21T00:33:44.987Z,13.9
2018-05-21T00:33:49.306Z,13.96
2018-05-21T00:33:53.513Z,14.01
2018-05-21T00:33:57.510Z,13.98
2018-05-21T00:34:01.616Z,13.88
2018-05-21T00:34:05.761Z,13.99
2018-05-21T00:34:09.881Z,14.05
2018-05-21T00:34:14.211Z,13.94
2018-05-21T00:34:18.419Z,14.05
2018-05-21T00:34:22.632Z,13.96
2018-05-21T00:34:26.735Z,13.88
2018-05-21T00:34:30.734Z,13.96
2018-05-21T00:34:34.945Z,14.08
2018-05-21T00:34:39.258Z,13.94
2018-05-21T00:34:43.574Z,14.04
2018-05-21T00:34:47.793Z,13.99
2018-05-21T00:34:52.007Z,13.96
2018-05-21T00:34:56.324Z,14.01
2018-05-21T00:35:00.639Z,14.02
2018-05-21T00:35:04.651Z,14.05
2018-05-21T00:35:08.755Z,13.96
2018-05-21T00:35:12.851Z,13.99
2018-05-21T00:35:17.182Z,13.96
2018-05-21T00:35:21.408Z,14.01
2018-05-21T00:35:25.723Z,14.01
2018-05-21T00:35:30.047Z,14.01
2018-05-21T00:35:34.359Z,14.05
2018-05-21T00:35:38.580Z,13.98
2018-05-21T00:35:42.788Z,13.99
2018-05-21T00:35:47.005Z,13.94
2018-05-21T00:35:51.106Z,13.94
2018-05-21T00:35:55.420Z,13.99
2018-05-21T00:35:59.413Z,14.02
2018-05-21T00:36:03.623Z,14.01
2018-05-21T00:36:07.724Z,13.94
2018-05-21T00:36:11.839Z,13.98
2018-05-21T00:36:16.047Z,14.01
2018-05-21T00:36:20.375Z,13.94
2018-05-21T00:36:24.475Z,13.94
2018-05-21T00:36:28.685Z,13.98
2018-05-21T00:36:32.788Z,14.02
2018-05-21T00:36:37.049Z,13.96
2018-05-21T00:36:41.262Z,13.98
2018-05-21T00:36:45.374Z,13.94
2018-05-21T00:36:49.478Z,14.04
2018-05-21T00:36:53.791Z,13.99
2018-05-21T00:36:58.106Z,13.9
2018-05-21T00:37:02.322Z,13.93
2018-05-21T00:37:06.429Z,14.01
2018-05-21T00:37:10.660Z,14.04
2018-05-21T00:37:14.866Z,14.01
2018-05-21T00:37:19.080Z,13.94
2018-05-21T00:37:23.291Z,13.96
2018-05-21T00:37:27.285Z,13.96
2018-05-21T00:37:31.280Z,13.94
2018-05-21T00:37:35.280Z,13.98
2018-05-21T00:37:39.607Z,13.94
2018-05-21T00:37:44.005Z,14.01
2018-05-21T00:37:48.230Z,13.93
2018-05-21T00:37:52.551Z,13.98
2018-05-21T00:37:56.822Z,13.94
2018-05-21T00:38:01.141Z,14.01
2018-05-21T00:38:05.470Z,13.96
2018-05-21T00:38:09.690Z,13.99
2018-05-21T00:38:13.807Z,14.02
2018-05-21T00:38:18.132Z,13.96
2018-05-21T00:38:22.343Z,13.88
2018-05-21T00:38:26.443Z,13.99
2018-05-21T00:38:30.546Z,13.96
2018-05-21T00:38:34.891Z,13.98
2018-05-21T00:38:39.219Z,13.98
2018-05-21T00:38:43.316Z,13.98
2018-05-21T00:38:47.526Z,13.93
2018-05-21T00:38:51.850Z,13.9
2018-05-21T00:38:56.062Z,13.98
2018-05-21T00:39:00.389Z,13.98
2018-05-21T00:39:04.648Z,13.88
2018-05-21T00:39:08.964Z,14.01
2018-05-21T00:39:13.172Z,13.96
2018-05-21T00:39:17.378Z,13.96
2018-05-21T00:39:21.487Z,13.94
2018-05-21T00:39:25.697Z,13.96
2018-05-21T00:39:30.007Z,13.96
2018-05-21T00:39:34.006Z,13.96
2018-05-21T00:39:38.108Z,13.93
2018-05-21T00:39:42.318Z,14.01
2018-05-21T00:39:46.423Z,13.93
2018-05-21T00:39:50.527Z,13.96
2018-05-21T00:39:54.856Z,13.86
2018-05-21T00:39:58.849Z,13.96
2018-05-21T00:40:03.063Z,13.99
2018-05-21T00:40:07.356Z,13.88
2018-05-21T00:40:11.683Z,13.93
2018-05-21T00:40:16.006Z,13.96
2018-05-21T00:40:20.114Z,13.98
2018-05-21T00:40:24.324Z,13.88
2018-05-21T00:40:28.634Z,13.96
2018-05-21T00:40:32.725Z,13.93
2018-05-21T00:40:36.935Z,13.93
2018-05-21T00:40:41.257Z,13.9
2018-05-21T00:40:45.252Z,13.93
2018-05-21T00:40:49.584Z,13.84
2018-05-21T00:40:53.578Z,13.96
2018-05-21T00:40:57.573Z,13.86
2018-05-21T00:41:01.781Z,13.9
2018-05-21T00:41:05.880Z,13.84
2018-05-21T00:41:10.111Z,13.93
2018-05-21T00:41:14.215Z,13.83
2018-05-21T00:41:18.422Z,13.86
2018-05-21T00:41:22.735Z,13.91
2018-05-21T00:41:26.955Z,13.9
2018-05-21T00:41:31.171Z,13.88
2018-05-21T00:41:35.492Z,13.87
2018-05-21T00:41:39.815Z,13.87
2018-05-21T00:41:44.124Z,13.87
2018-05-21T00:41:48.446Z,13.9
2018-05-21T00:41:52.552Z,13.9
2018-05-21T00:41:56.757Z,13.88
2018-05-21T00:42:00.856Z,13.87
2018-05-21T00:42:04.984Z,13.86
2018-05-21T00:42:09.304Z,13.87
2018-05-21T00:42:13.404Z,13.84
2018-05-21T00:42:17.511Z,13.9
2018-05-21T00:42:21.825Z,13.87
2018-05-21T00:42:26.035Z,13.84
2018-05-21T00:42:30.353Z,13.9
2018-05-21T00:42:34.562Z,13.86
2018-05-21T00:42:38.879Z,13.84
2018-05-21T00:42:43.087Z,13.86
2018-05-21T00:42:47.298Z,13.91
2018-05-21T00:42:51.648Z,13.87
2018-05-21T00:42:55.887Z,13.87
2018-05-21T00:43:00.199Z,13.86
2018-05-21T00:43:03.977Z,13.81
2018-05-21T00:43:08.077Z,13.9
2018-05-21T00:43:12.392Z,13.87
2018-05-21T00:43:16.607Z,13.81
2018-05-21T00:43:20.819Z,13.86
2018-05-21T00:43:25.135Z,13.87
2018-05-21T00:43:29.449Z,13.84
2018-05-21T00:43:33.560Z,13.81
2018-05-21T00:43:37.884Z,13.84
2018-05-21T00:43:42.209Z,13.86
2018-05-21T00:43:46.522Z,13.86
2018-05-21T00:43:50.520Z,13.81
2018-05-21T00:43:55.225Z,13.81
2018-05-21T00:43:59.336Z,13.84
2018-05-21T00:44:03.334Z,13.84
2018-05-21T00:44:07.544Z,13.81
2018-05-21T00:44:11.754Z,13.81
2018-05-21T00:44:15.964Z,13.79
2018-05-21T00:44:20.183Z,13.87
2018-05-21T00:44:24.388Z,13.86
2018-05-21T00:44:28.605Z,13.83
2018-05-21T00:44:32.706Z,13.9
2018-05-21T00:44:36.919Z,13.87
2018-05-21T00:44:41.138Z,13.87
2018-05-21T00:44:45.343Z,13.9
2018-05-21T00:44:49.663Z,13.9
2018-05-21T00:44:53.874Z,13.84
2018-05-21T00:44:58.202Z,13.87
2018-05-21T00:45:02.406Z,13.8
2018-05-21T00:45:06.626Z,13.84
2018-05-21T00:45:10.729Z,13.83
2018-05-21T00:45:14.932Z,13.9
2018-05-21T00:45:19.252Z,13.83
2018-05-21T00:45:23.571Z,13.86
2018-05-21T00:45:27.904Z,13.81
2018-05-21T00:45:32.112Z,13.83
2018-05-21T00:45:36.206Z,13.8
2018-05-21T00:45:40.416Z,13.86
2018-05-21T00:45:44.623Z,13.86
2018-05-21T00:45:48.742Z,13.81
2018-05-21T00:45:53.123Z,13.79
2018-05-21T00:45:57.336Z,13.81
2018-05-21T00:46:01.438Z,13.86
2018-05-21T00:46:05.323Z,13.88
2018-05-21T00:46:09.431Z,13.84
2018-05-21T00:46:13.529Z,13.76
2018-05-21T00:46:17.751Z,13.81
2018-05-21T00:46:21.848Z,13.8
2018-05-21T00:46:26.060Z,13.86
2018-05-21T00:46:30.460Z,13.86
2018-05-21T00:46:34.673Z,13.81
2018-05-21T00:46:38.897Z,13.79
2018-05-21T00:46:43.109Z,13.81
2018-05-21T00:46:47.207Z,13.76
2018-05-21T00:46:51.416Z,13.83
2018-05-21T00:46:55.633Z,13.73
2018-05-21T00:46:59.952Z,13.75
2018-05-21T00:47:03.956Z,13.73
2018-05-21T00:47:08.169Z,13.73
2018-05-21T00:47:12.379Z,13.76
2018-05-21T00:47:16.590Z,13.75
2018-05-21T00:47:20.906Z,13.76
2018-05-21T00:47:25.149Z,13.76
2018-05-21T00:47:29.465Z,13.84
2018-05-21T00:47:33.673Z,13.84
2018-05-21T00:47:37.773Z,13.72
2018-05-21T00:47:42.097Z,13.72
2018-05-21T00:47:46.310Z,13.81
2018-05-21T00:47:50.522Z,13.75
2018-05-21T00:47:54.622Z,13.73
2018-05-21T00:47:58.953Z,13.81
2018-05-21T00:48:03.160Z,13.75
2018-05-21T00:48:07.372Z,13.79
2018-05-21T00:48:11.362Z,13.73
2018-05-21T00:48:15.570Z,13.71
2018-05-21T00:48:19.781Z,13.72
2018-05-21T00:48:23.931Z,13.72
2018-05-21T00:48:28.138Z,13.75
2018-05-21T00:48:32.345Z,13.72
2018-05-21T00:48:36.456Z,13.71
2018-05-21T00:48:40.446Z,13.75
2018-05-21T00:48:44.762Z,13.79
2018-05-21T00:48:48.953Z,13.73
2018-05-21T00:48:53.279Z,13.72
2018-05-21T00:48:57.485Z,13.72
2018-05-21T00:49:01.697Z,13.68
2018-05-21T00:49:05.960Z,13.72
2018-05-21T00:49:09.953Z,13.73
2018-05-21T00:49:14.160Z,13.71
2018-05-21T00:49:18.380Z,13.8
2018-05-21T00:49:22.692Z,13.73
2018-05-21T00:49:26.805Z,13.69
2018-05-21T00:49:30.797Z,13.76
2018-05-21T00:49:35.008Z,13.72
2018-05-21T00:49:39.226Z,13.68
2018-05-21T00:49:43.545Z,13.69
2018-05-21T00:49:47.754Z,13.69
2018-05-21T00:49:51.854Z,13.72
2018-05-21T00:49:55.950Z,13.73
2018-05-21T00:50:00.159Z,13.69
2018-05-21T00:50:04.159Z,13.75
2018-05-21T00:50:08.478Z,13.69
2018-05-21T00:50:12.471Z,13.73
2018-05-21T00:50:16.460Z,13.75
2018-05-21T00:50:20.891Z,13.76
2018-05-21T00:50:25.516Z,13.72
2018-05-21T00:50:29.887Z,13.66
2018-05-21T00:50:34.097Z,13.72
2018-05-21T00:50:38.409Z,13.73
2018-05-21T00:50:42.728Z,13.73
2018-05-21T00:50:46.941Z,13.76
2018-05-21T00:50:51.254Z,13.71
2018-05-21T00:50:55.469Z,13.76
2018-05-21T00:50:59.570Z,13.75
2018-05-21T00:51:03.926Z,13.76
2018-05-21T00:51:08.027Z,13.72
2018-05-21T00:51:12.248Z,13.79
2018-05-21T00:51:16.569Z,13.76
2018-05-21T00:51:20.775Z,13.75
2018-05-21T00:51:24.775Z,13.73
2018-05-21T00:51:29.092Z,13.76
2018-05-21T00:51:33.280Z,13.71
2018-05-21T00:51:37.494Z,13.76
2018-05-21T00:51:41.595Z,13.68
2018-05-21T00:51:45.917Z,13.76
2018-05-21T00:51:50.146Z,13.73
2018-05-21T00:51:54.358Z,13.76
2018-05-21T00:51:58.454Z,13.68
2018-05-21T00:52:02.667Z,13.73
2018-05-21T00:52:06.772Z,13.8
2018-05-21T00:52:11.155Z,13.76
2018-05-21T00:52:15.154Z,13.71
2018-05-21T00:52:19.375Z,13.73
2018-05-21T00:52:23.581Z,13.76
2018-05-21T00:52:27.791Z,13.72
2018-05-21T00:52:32.004Z,13.75
2018-05-21T00:52:36.209Z,13.73
2018-05-21T00:52:40.534Z,13.72
2018-05-21T00:52:44.637Z,13.73
2018-05-21T00:52:48.849Z,13.76
2018-05-21T00:52:53.170Z,13.72
2018-05-21T00:52:57.382Z,13.72
2018-05-21T00:53:01.592Z,13.83
2018-05-21T00:53:05.952Z,13.79
2018-05-21T00:53:10.174Z,13.72
2018-05-21T00:53:14.390Z,13.73
2018-05-21T00:53:18.605Z,13.73
2018-05-21T00:53:22.593Z,13.81
2018-05-21T00:53:26.804Z,13.84
2018-05-21T00:53:31.007Z,13.81
2018-05-21T00:53:35.320Z,13.79
2018-05-21T00:53:39.642Z,13.79
2018-05-21T00:53:43.748Z,13.81
2018-05-21T00:53:47.967Z,13.76
2018-05-21T00:53:52.066Z,13.75
2018-05-21T00:53:56.357Z,13.76
2018-05-21T00:54:00.256Z,13.83
2018-05-21T00:54:04.504Z,13.73
2018-05-21T00:54:08.712Z,13.76
2018-05-21T00:54:13.034Z,13.76
2018-05-21T00:54:17.131Z,13.81
2018-05-21T00:54:21.459Z,13.76
2018-05-21T00:54:25.455Z,13.84
2018-05-21T00:54:29.557Z,13.84
2018-05-21T00:54:33.891Z,13.75
2018-05-21T00:54:38.143Z,13.75
2018-05-21T00:54:42.255Z,13.81
2018-05-21T00:54:46.463Z,13.88
2018-05-21T00:54:50.460Z,13.79